Shortt Gap, Virginia
Current Conditions -  °F | °C
As of 3:35 PM on Saturday 25 Oct 2014 (Local Time) from KJFZ Reporting Station
Broken Clouds Broken Clouds  
Wind Chill: 66°   Ceiling: 3900
Heat Index: 66°   Visibility: 10mi
Dew Point: 19°   Wind: 5mph
Humidity: 17%   Direction: 230°SW
Pressure: 30.01"   Gusts: NA
Location:  37.15°N, 81.88°W
Report Text: KJFZ 251935Z AUTO 23004KT 10SM BKN039 BKN050 19/M07 A3001 RMK AO2 T01891072
Loading
Personal Weather Stations






























Interactive Weather Map
Tropical Storm Tracking
New forecast layout! Learn more

10-Day Weather Forecast

Advertisements
Track Severe Weather on mobile